Time;durP1;ratioP1;P1;durP2;ratioP2;P2;SDS_P1;SDS_P2;PMS_P1;PMS_P2;Temp;Humidity;BMP_temperature;BMP_pressure;BME280_temperature;BME280_humidity;BME280_pressure;Samples;Min_cycle;Max_cycle;Signal;HPM_P1;HPM_P2
2021/06/07 00:01:53;;;;;;;19.65;12.65;;;18.90;99.90;;;;;;1934321;73;21091;-71
2021/06/07 00:04:20;;;;;;;21.55;13.13;;;18.90;99.90;;;;;;1900498;74;21038;-72
2021/06/07 00:06:48;;;;;;;22.22;13.93;;;18.90;99.90;;;;;;1930267;74;21080;-72
2021/06/07 00:09:18;;;;;;;19.82;13.50;;;18.90;99.90;;;;;;1891700;74;21572;-72
2021/06/07 00:11:52;;;;;;;19.82;14.07;;;18.90;99.90;;;;;;1929342;73;21093;-72
2021/06/07 00:14:22;;;;;;;18.48;13.40;;;18.90;99.90;;;;;;1930965;73;21088;-71
2021/06/07 00:16:50;;;;;;;22.02;13.90;;;18.80;99.90;;;;;;1892845;74;21095;-72
2021/06/07 00:19:19;;;;;;;23.57;12.88;;;18.80;99.90;;;;;;1934299;73;21500;-72
2021/06/07 00:21:48;;;;;;;21.77;14.20;;;18.80;99.90;;;;;;1936712;73;21058;-71
2021/06/07 00:24:18;;;;;;;25.90;14.83;;;18.80;99.90;;;;;;1929690;73;21170;-72
2021/06/07 00:26:47;;;;;;;21.00;13.68;;;18.70;99.90;;;;;;1930076;73;21609;-71
2021/06/07 00:29:15;;;;;;;21.05;14.85;;;18.80;99.90;;;;;;1891665;74;21258;-72
2021/06/07 00:31:44;;;;;;;24.90;14.55;;;18.80;99.90;;;;;;1927033;74;21081;-72
2021/06/07 00:34:12;;;;;;;19.17;13.93;;;18.80;99.90;;;;;;1928260;73;21097;-71
2021/06/07 00:36:40;;;;;;;21.85;15.05;;;18.80;99.90;;;;;;1916841;74;21133;-71
2021/06/07 00:39:11;;;;;;;21.62;14.95;;;18.70;99.90;;;;;;1889075;74;21149;-72
2021/06/07 00:41:39;;;;;;;24.05;15.32;;;18.80;99.90;;;;;;1935487;73;21649;-70
2021/06/07 00:44:12;;;;;;;24.00;16.48;;;18.80;99.90;;;;;;1930036;73;21100;-70
2021/06/07 00:46:40;;;;;;;24.47;16.42;;;18.80;99.90;;;;;;1931854;73;21092;-70
2021/06/07 00:49:09;;;;;;;24.63;15.93;;;18.60;99.90;;;;;;1931264;73;21611;-69
2021/06/07 00:51:37;;;;;;;24.95;16.67;;;18.70;99.90;;;;;;1937406;73;21030;-71
2021/06/07 00:54:06;;;;;;;27.22;16.25;;;18.70;99.90;;;;;;1905810;74;21518;-70
2021/06/07 00:56:34;;;;;;;23.27;16.05;;;18.70;99.90;;;;;;1937958;73;21405;-70
2021/06/07 00:59:01;;;;;;;25.55;16.05;;;18.70;99.90;;;;;;1932093;73;21539;-71
2021/06/07 01:01:30;;;;;;;23.45;15.45;;;18.70;99.90;;;;;;1931383;72;21071;-69
2021/06/07 01:04:00;;;;;;;25.70;16.73;;;18.70;99.90;;;;;;1935300;73;21010;-70
2021/06/07 01:06:28;;;;;;;24.98;16.90;;;18.70;99.90;;;;;;1930920;73;21566;-72
2021/06/07 01:08:56;;;;;;;24.77;17.10;;;18.70;99.90;;;;;;1932360;73;21102;-72
2021/06/07 01:11:24;;;;;;;23.25;16.87;;;18.70;99.90;;;;;;1930066;73;21622;-72
2021/06/07 01:13:53;;;;;;;27.10;18.07;;;18.70;99.90;;;;;;1930619;73;21096;-71
2021/06/07 01:16:21;;;;;;;26.52;17.45;;;18.60;99.90;;;;;;1891361;74;21614;-71
2021/06/07 01:18:49;;;;;;;23.55;17.37;;;18.60;99.90;;;;;;1935560;73;21117;-72
2021/06/07 01:21:22;;;;;;;22.27;17.40;;;18.50;99.90;;;;;;1929880;73;22551;-71
2021/06/07 01:23:50;;;;;;;28.67;17.48;;;18.50;99.90;;;;;;1929260;73;21556;-72
2021/06/07 01:26:20;;;;;;;26.75;18.57;;;18.60;99.90;;;;;;1931056;73;21117;-72
2021/06/07 01:28:49;;;;;;;29.52;19.80;;;18.60;99.90;;;;;;1929995;73;21173;-71
2021/06/07 01:31:18;;;;;;;24.02;19.10;;;18.60;99.90;;;;;;1929922;73;21080;-71
2021/06/07 01:33:49;;;;;;;28.65;18.85;;;18.60;99.90;;;;;;1931374;73;21088;-71
2021/06/07 01:36:18;;;;;;;28.10;19.43;;;18.60;99.90;;;;;;1931424;73;21124;-71
2021/06/07 01:38:46;;;;;;;29.75;19.73;;;18.40;99.90;;;;;;1930061;73;21052;-72
2021/06/07 01:41:17;;;;;;;24.67;18.80;;;18.50;99.90;;;;;;1930573;73;21053;-71
2021/06/07 01:43:46;;;;;;;28.90;20.10;;;18.50;99.90;;;;;;1928720;73;21112;-71
2021/06/07 01:46:13;;;;;;;29.37;21.23;;;18.60;99.90;;;;;;1931315;73;21211;-72
2021/06/07 01:48:41;;;;;;;26.57;20.35;;;18.40;99.90;;;;;;1940654;73;21140;-71
2021/06/07 01:51:11;;;;;;;27.07;19.87;;;18.50;99.90;;;;;;1892107;74;21512;-70
2021/06/07 01:53:40;;;;;;;26.70;20.68;;;18.50;99.90;;;;;;1931453;73;21496;-71
2021/06/07 01:56:09;;;;;;;28.40;20.52;;;18.40;99.90;;;;;;1889905;74;21196;-71
2021/06/07 01:58:39;;;;;;;28.98;20.00;;;18.40;99.90;;;;;;1929023;73;21085;-71
2021/06/07 02:01:19;;;;;;;24.77;19.35;;;18.40;99.90;;;;;;1930031;74;21451;-70
2021/06/07 02:03:47;;;;;;;26.40;19.40;;;18.40;99.90;;;;;;1930023;73;21087;-71
2021/06/07 02:06:17;;;;;;;29.30;20.05;;;18.40;99.90;;;;;;1895660;74;21054;-71
2021/06/07 02:08:45;;;;;;;25.95;19.55;;;18.30;99.90;;;;;;1930678;73;21041;-71
2021/06/07 02:11:16;;;;;;;28.47;20.25;;;18.30;99.90;;;;;;1891724;76;21050;-72
2021/06/07 02:13:51;;;;;;;28.45;19.87;;;18.40;99.90;;;;;;1936818;73;20990;-72
2021/06/07 02:16:22;;;;;;;27.40;19.60;;;18.40;99.90;;;;;;1921392;73;21012;-72
2021/06/07 02:18:50;;;;;;;25.48;19.05;;;18.50;99.90;;;;;;1937743;73;21140;-75
2021/06/07 02:21:21;;;;;;;27.50;20.00;;;18.50;99.90;;;;;;1935340;73;21067;-71
2021/06/07 02:23:49;;;;;;;27.80;20.35;;;18.50;99.90;;;;;;1942055;73;20983;-72
2021/06/07 02:26:17;;;;;;;27.02;19.82;;;18.40;99.90;;;;;;1932584;73;21530;-72
2021/06/07 02:28:53;;;;;;;28.57;21.27;;;18.40;99.90;;;;;;1891244;74;21078;-72
2021/06/07 02:31:21;;;;;;;25.15;19.23;;;18.40;99.90;;;;;;1927759;74;21074;-71
2021/06/07 02:33:51;;;;;;;32.13;20.62;;;18.40;99.90;;;;;;1931335;73;21092;-69
2021/06/07 02:36:20;;;;;;;27.80;22.22;;;18.40;99.90;;;;;;1930317;73;21131;-70
2021/06/07 02:38:48;;;;;;;30.82;22.05;;;18.40;99.90;;;;;;1923694;73;21125;-70
2021/06/07 02:41:17;;;;;;;27.13;21.77;;;18.40;99.90;;;;;;1934856;73;21046;-71
2021/06/07 02:43:44;;;;;;;30.12;22.07;;;18.40;99.90;;;;;;1929807;73;21030;-73
2021/06/07 02:46:12;;;;;;;30.23;22.55;;;18.40;99.90;;;;;;1932905;73;21621;-71
2021/06/07 02:48:40;;;;;;;27.00;22.37;;;18.40;99.90;;;;;;1930215;73;21629;-71
2021/06/07 02:51:07;;;;;;;33.10;24.50;;;18.40;99.90;;;;;;1929893;73;22191;-71
2021/06/07 02:53:35;;;;;;;35.15;24.25;;;18.30;99.90;;;;;;1929861;73;21093;-71
2021/06/07 02:56:03;;;;;;;33.75;25.15;;;18.30;99.90;;;;;;1929250;73;21012;-73
2021/06/07 02:58:31;;;;;;;31.02;24.37;;;18.30;99.90;;;;;;1892720;74;21057;-70
2021/06/07 03:01:04;;;;;;;38.17;25.05;;;18.20;99.90;;;;;;1930689;73;21088;-73
2021/06/07 03:03:32;;;;;;;33.30;24.00;;;18.20;99.90;;;;;;1932630;73;21085;-71
2021/06/07 03:06:00;;;;;;;32.30;24.25;;;18.30;99.90;;;;;;1931479;73;21102;-71
2021/06/07 03:08:30;;;;;;;34.48;23.85;;;18.30;99.90;;;;;;1931869;73;21463;-72
2021/06/07 03:11:09;;;;;;;29.37;23.45;;;18.30;99.90;;;;;;1932651;73;21383;-72
2021/06/07 03:13:39;;;;;;;33.65;24.65;;;18.30;99.90;;;;;;1930557;73;21036;-70
2021/06/07 03:16:08;;;;;;;34.78;25.00;;;18.30;99.90;;;;;;1928849;73;21034;-70
2021/06/07 03:18:35;;;;;;;36.00;24.63;;;18.30;99.90;;;;;;1931973;73;21177;-70
2021/06/07 03:21:03;;;;;;;34.43;24.57;;;18.30;99.90;;;;;;1928887;73;21093;-71
2021/06/07 03:23:34;;;;;;;35.63;25.30;;;18.30;99.90;;;;;;1930019;74;21512;-72
2021/06/07 03:26:03;;;;;;;32.73;25.97;;;18.30;99.90;;;;;;1930088;73;21093;-71
2021/06/07 03:28:32;;;;;;;33.58;26.12;;;18.30;99.90;;;;;;1888318;74;21141;-71
2021/06/07 03:31:00;;;;;;;37.17;25.92;;;18.30;99.90;;;;;;1937553;73;21061;-72
2021/06/07 03:33:28;;;;;;;39.85;26.62;;;18.20;99.90;;;;;;1934892;73;23389;-71
2021/06/07 03:35:57;;;;;;;35.15;26.15;;;18.20;99.90;;;;;;1930369;73;21581;-73
2021/06/07 03:38:27;;;;;;;34.45;26.60;;;18.20;99.90;;;;;;1931165;73;21101;-73
2021/06/07 03:40:55;;;;;;;40.45;25.55;;;18.20;99.90;;;;;;1890812;74;21062;-73
2021/06/07 03:43:25;;;;;;;38.53;27.90;;;18.20;99.90;;;;;;1933171;73;21093;-71
2021/06/07 03:45:53;;;;;;;37.13;27.10;;;18.10;99.90;;;;;;1930581;74;21100;-71
2021/06/07 03:48:21;;;;;;;35.10;26.90;;;18.20;99.90;;;;;;1931706;73;21032;-73
2021/06/07 03:50:49;;;;;;;37.33;26.12;;;18.20;99.90;;;;;;1917990;73;21172;-71
2021/06/07 03:53:17;;;;;;;39.92;25.92;;;18.20;99.90;;;;;;1894988;74;21023;-71
2021/06/07 03:55:45;;;;;;;37.17;26.62;;;18.20;99.90;;;;;;1938351;73;21018;-71
2021/06/07 03:58:13;;;;;;;34.90;26.17;;;18.20;99.90;;;;;;1930216;74;21025;-71
2021/06/07 04:00:42;;;;;;;34.88;26.00;;;18.20;99.90;;;;;;1930228;73;21090;-71
2021/06/07 04:03:11;;;;;;;34.23;26.10;;;18.20;99.90;;;;;;1931569;73;21082;-71
2021/06/07 04:05:39;;;;;;;36.65;28.07;;;18.30;99.90;;;;;;1887259;74;21104;-70
2021/06/07 04:08:09;;;;;;;36.98;26.50;;;18.20;99.90;;;;;;1917369;73;21122;-71
2021/06/07 04:10:38;;;;;;;39.55;27.58;;;18.10;99.90;;;;;;1910968;72;21689;-70
2021/06/07 04:13:06;;;;;;;41.20;27.50;;;18.20;99.90;;;;;;1901350;75;21625;-69
2021/06/07 04:15:33;;;;;;;35.73;26.95;;;18.10;99.90;;;;;;1901479;74;21549;-70
2021/06/07 04:18:01;;;;;;;36.95;27.13;;;18.00;99.90;;;;;;1902814;74;21574;-70
2021/06/07 04:20:31;;;;;;;36.08;26.07;;;18.10;99.90;;;;;;1922461;73;21090;-69
2021/06/07 04:22:59;;;;;;;38.13;26.80;;;18.10;99.90;;;;;;1931340;73;21168;-69
2021/06/07 04:25:28;;;;;;;44.13;27.80;;;18.10;99.90;;;;;;1926245;74;21593;-69
2021/06/07 04:27:57;;;;;;;42.23;27.40;;;18.10;99.90;;;;;;1938372;74;21067;-69
2021/06/07 04:30:25;;;;;;;37.10;27.93;;;18.10;99.90;;;;;;1934960;72;21286;-67
2021/06/07 04:32:54;;;;;;;39.73;27.20;;;18.20;99.90;;;;;;1929989;74;21110;-70
2021/06/07 04:35:23;;;;;;;39.35;27.70;;;18.20;99.90;;;;;;1931084;72;21027;-70
2021/06/07 04:38:10;;;;;;;41.75;25.88;;;18.20;99.90;;;;;;1933656;72;21607;-68
2021/06/07 04:40:39;;;;;;;38.08;26.87;;;18.20;99.90;;;;;;1909149;74;21066;-69
2021/06/07 04:43:10;;;;;;;43.45;28.12;;;18.20;99.90;;;;;;1928029;73;21584;-70
2021/06/07 04:45:40;;;;;;;36.80;26.57;;;18.10;99.90;;;;;;1924195;74;21183;-69
2021/06/07 04:48:08;;;;;;;37.78;26.68;;;18.10;99.90;;;;;;1924095;73;21101;-69
2021/06/07 04:50:36;;;;;;;35.60;27.48;;;18.20;99.90;;;;;;1926674;73;21130;-69
2021/06/07 04:53:06;;;;;;;39.08;26.65;;;18.10;99.90;;;;;;1925487;74;21098;-67
2021/06/07 04:55:36;;;;;;;39.05;27.58;;;18.20;99.90;;;;;;1934710;74;21171;-67
2021/06/07 04:58:19;;;;;;;39.08;27.00;;;18.20;99.90;;;;;;1908693;74;21050;-66
2021/06/07 05:00:50;;;;;;;38.73;28.55;;;18.20;99.90;;;;;;1924875;72;21118;-65
2021/06/07 05:03:18;;;;;;;38.53;28.65;;;18.20;99.90;;;;;;1912519;73;21575;-67
2021/06/07 05:05:46;;;;;;;40.08;28.92;;;18.20;99.90;;;;;;1911352;74;21062;-66
2021/06/07 05:08:14;;;;;;;46.65;29.60;;;18.20;99.90;;;;;;1920617;72;21390;-65
2021/06/07 05:10:42;;;;;;;41.53;30.45;;;18.20;99.90;;;;;;1923146;73;21263;-65
2021/06/07 05:13:09;;;;;;;37.98;29.15;;;18.20;99.90;;;;;;1922647;74;21098;-66
2021/06/07 05:15:37;;;;;;;39.50;28.45;;;18.10;99.90;;;;;;1920022;74;21145;-67
2021/06/07 05:18:06;;;;;;;40.92;29.50;;;18.10;99.90;;;;;;1928011;74;21079;-67
2021/06/07 05:20:35;;;;;;;39.45;28.07;;;18.20;99.90;;;;;;1931067;73;21067;-67
2021/06/07 05:23:03;;;;;;;41.15;28.05;;;18.20;99.90;;;;;;1932365;74;21035;-66
2021/06/07 05:25:32;;;;;;;41.53;28.70;;;18.20;99.90;;;;;;1918698;74;21027;-66
2021/06/07 05:28:01;;;;;;;36.60;28.20;;;18.20;99.90;;;;;;1926610;74;21055;-66
2021/06/07 05:30:31;;;;;;;36.00;28.00;;;18.20;99.90;;;;;;1925427;74;21195;-67
2021/06/07 05:32:59;;;;;;;36.95;27.98;;;18.20;99.90;;;;;;1922746;74;21103;-66
2021/06/07 05:35:29;;;;;;;37.00;27.58;;;18.10;99.90;;;;;;1931395;74;21133;-66
2021/06/07 05:37:59;;;;;;;37.63;27.52;;;18.20;99.90;;;;;;1919379;74;21023;-68
2021/06/07 05:40:30;;;;;;;33.98;26.20;;;18.10;99.90;;;;;;1910610;72;21154;-67
2021/06/07 05:42:59;;;;;;;35.23;26.82;;;18.20;99.90;;;;;;1931233;72;21159;-68
2021/06/07 05:45:27;;;;;;;43.52;28.50;;;18.20;99.90;;;;;;1920379;74;21088;-67
2021/06/07 05:47:57;;;;;;;42.50;29.67;;;18.20;99.90;;;;;;1929338;74;21517;-68
2021/06/07 05:50:26;;;;;;;37.95;28.30;;;18.20;99.90;;;;;;1937049;73;21649;-69
2021/06/07 05:52:55;;;;;;;41.80;28.50;;;18.20;99.90;;;;;;1925883;73;21517;-68
2021/06/07 05:55:25;;;;;;;36.45;28.15;;;18.20;99.90;;;;;;1916913;73;21078;-67
2021/06/07 05:57:56;;;;;;;36.70;27.60;;;18.20;99.90;;;;;;1921231;72;21147;-69
2021/06/07 06:00:26;;;;;;;38.88;27.87;;;18.20;99.90;;;;;;1902464;74;21098;-67
2021/06/07 06:02:54;;;;;;;35.28;27.27;;;18.20;99.90;;;;;;1886179;75;21066;-68
2021/06/07 06:05:21;;;;;;;39.25;28.83;;;18.20;99.90;;;;;;1924146;73;21174;-69
2021/06/07 06:07:50;;;;;;;36.05;26.73;;;18.20;99.90;;;;;;1925117;74;21661;-67
2021/06/07 06:10:18;;;;;;;90.87;37.93;;;18.20;99.90;;;;;;1910355;73;21150;-68
2021/06/07 06:12:48;;;;;;;50.95;29.35;;;18.20;99.90;;;;;;1932243;74;21584;-72
2021/06/07 06:15:18;;;;;;;36.42;26.25;;;18.30;99.90;;;;;;1919466;73;21143;-69
2021/06/07 06:17:46;;;;;;;38.17;26.33;;;18.30;99.90;;;;;;1933987;73;21062;-72
2021/06/07 06:20:14;;;;;;;34.55;25.65;;;18.30;99.90;;;;;;1931261;73;21980;-68
2021/06/07 06:22:42;;;;;;;35.88;25.72;;;18.20;99.90;;;;;;1910014;74;21035;-74
2021/06/07 06:25:11;;;;;;;34.90;24.77;;;18.30;99.90;;;;;;1928448;74;21086;-74
2021/06/07 06:27:40;;;;;;;34.73;25.75;;;18.30;99.90;;;;;;1918134;74;21152;-74
2021/06/07 06:30:10;;;;;;;34.92;26.02;;;18.30;99.90;;;;;;1901904;74;21075;-74
2021/06/07 06:32:38;;;;;;;36.28;25.88;;;18.30;99.90;;;;;;1917735;74;21026;-73
2021/06/07 06:35:07;;;;;;;47.10;28.75;;;18.30;99.90;;;;;;1923995;74;21031;-71
2021/06/07 06:37:35;;;;;;;37.93;26.27;;;18.30;99.90;;;;;;1934175;74;21072;-72
2021/06/07 06:40:04;;;;;;;35.13;24.90;;;18.30;99.90;;;;;;1921467;74;21153;-70
2021/06/07 06:42:35;;;;;;;36.03;24.77;;;18.30;99.90;;;;;;1907024;74;21011;-68
2021/06/07 06:45:02;;;;;;;29.23;23.40;;;18.40;99.90;;;;;;1929661;73;21082;-68
2021/06/07 06:47:29;;;;;;;36.35;24.92;;;18.40;99.90;;;;;;1927686;73;21114;-69
2021/06/07 06:49:58;;;;;;;30.70;22.90;;;18.40;99.90;;;;;;1924292;74;21217;-70
2021/06/07 06:52:25;;;;;;;33.65;23.98;;;18.40;99.90;;;;;;1924827;74;21089;-70
2021/06/07 06:54:53;;;;;;;36.53;24.65;;;18.30;99.90;;;;;;1932447;74;21070;-70
2021/06/07 06:57:20;;;;;;;31.05;22.48;;;18.30;99.90;;;;;;1928970;72;21156;-68
2021/06/07 06:59:48;;;;;;;29.98;22.77;;;18.40;99.90;;;;;;1922465;74;21158;-68
2021/06/07 07:02:15;;;;;;;30.43;23.52;;;18.40;99.90;;;;;;1928205;74;21117;-70
2021/06/07 07:04:43;;;;;;;29.60;22.67;;;18.40;99.90;;;;;;1921959;73;21066;-69
2021/06/07 07:07:11;;;;;;;36.45;23.77;;;18.40;99.90;;;;;;1933116;73;21625;-70
2021/06/07 07:09:40;;;;;;;27.70;20.57;;;18.40;99.90;;;;;;1915665;74;21583;-70
2021/06/07 07:12:08;;;;;;;26.55;20.00;;;18.40;99.90;;;;;;1937704;73;21180;-69
2021/06/07 07:14:35;;;;;;;23.77;19.12;;;18.40;99.90;;;;;;1934646;74;21505;-69
2021/06/07 07:17:03;;;;;;;23.40;19.23;;;18.40;99.90;;;;;;1928576;74;21090;-70
2021/06/07 07:19:31;;;;;;;22.10;18.52;;;18.40;99.90;;;;;;1919606;73;22168;-69
2021/06/07 07:21:58;;;;;;;26.48;19.15;;;18.50;99.90;;;;;;1925709;74;21048;-70
2021/06/07 07:24:26;;;;;;;26.80;18.02;;;18.50;99.90;;;;;;1918480;74;21090;-69
2021/06/07 07:26:53;;;;;;;24.10;17.90;;;18.50;99.90;;;;;;1927674;74;21061;-72
2021/06/07 07:29:21;;;;;;;22.50;18.00;;;18.60;99.90;;;;;;1905814;74;21493;-72
2021/06/07 07:31:48;;;;;;;25.17;17.60;;;18.50;99.90;;;;;;1921837;74;21175;-73
2021/06/07 07:34:16;;;;;;;24.60;18.57;;;18.40;99.90;;;;;;1923884;73;21207;-72
2021/06/07 07:36:44;;;;;;;19.85;17.05;;;18.50;99.90;;;;;;1934640;73;21141;-73
2021/06/07 07:39:11;;;;;;;21.30;17.82;;;18.50;99.90;;;;;;1928469;73;21094;-72
2021/06/07 07:41:39;;;;;;;21.52;18.00;;;18.50;99.90;;;;;;1917383;74;21079;-72
2021/06/07 07:44:26;;;;;;;22.67;17.15;;;18.50;99.90;;;;;;1910775;74;21091;-71
2021/06/07 07:46:54;;;;;;;26.30;18.23;;;18.60;99.90;;;;;;1799265;79;21155;-72
2021/06/07 07:49:22;;;;;;;24.87;18.15;;;18.60;99.90;;;;;;1805886;79;21167;-71
2021/06/07 07:51:51;;;;;;;23.60;18.00;;;18.50;99.90;;;;;;1805286;79;21167;-71
2021/06/07 07:54:19;;;;;;;27.05;17.50;;;18.60;99.90;;;;;;1786429;79;21744;-69
2021/06/07 07:56:46;;;;;;;25.05;17.77;;;18.60;99.90;;;;;;1795161;78;21242;-68
2021/06/07 07:59:14;;;;;;;22.00;17.42;;;18.70;99.90;;;;;;1793715;79;21241;-69
2021/06/07 08:01:42;;;;;;;23.00;16.95;;;18.80;99.90;;;;;;1797439;78;21682;-68
2021/06/07 08:04:11;;;;;;;21.75;16.60;;;18.80;99.90;;;;;;1778721;79;21754;-67
2021/06/07 08:06:40;;;;;;;23.90;17.95;;;18.80;99.90;;;;;;1788378;79;21077;-67
2021/06/07 08:09:07;;;;;;;22.48;16.80;;;18.80;99.90;;;;;;1800412;79;21152;-70
2021/06/07 08:11:35;;;;;;;26.40;17.85;;;18.80;99.90;;;;;;1802964;79;21155;-68
2021/06/07 08:14:03;;;;;;;22.87;18.00;;;18.80;99.90;;;;;;1797684;79;21183;-67
2021/06/07 08:16:31;;;;;;;21.17;17.85;;;18.80;99.90;;;;;;1775704;78;21189;-66
2021/06/07 08:18:58;;;;;;;25.15;17.57;;;18.90;99.90;;;;;;1802905;79;22473;-67
2021/06/07 08:21:26;;;;;;;23.83;18.15;;;18.90;99.90;;;;;;1796991;77;21706;-68
2021/06/07 08:23:54;;;;;;;22.05;17.60;;;18.90;99.90;;;;;;1790894;79;21083;-66
2021/06/07 08:26:21;;;;;;;29.15;17.10;;;18.90;99.90;;;;;;1796478;79;21260;-69
2021/06/07 08:28:49;;;;;;;23.77;16.97;;;18.90;99.90;;;;;;1786296;79;21129;-67
2021/06/07 08:31:16;;;;;;;20.35;16.52;;;19.00;99.90;;;;;;1801066;78;21133;-67
2021/06/07 08:33:44;;;;;;;21.70;15.72;;;19.00;99.90;;;;;;1785998;79;21276;-66
2021/06/07 08:36:11;;;;;;;22.82;16.60;;;19.00;99.90;;;;;;1804699;78;21182;-70
2021/06/07 08:38:41;;;;;;;24.23;16.00;;;19.00;99.90;;;;;;1807441;79;21197;-67
2021/06/07 08:41:10;;;;;;;19.95;15.85;;;19.00;99.90;;;;;;1796860;79;21276;-67
2021/06/07 08:43:38;;;;;;;21.10;15.72;;;19.00;99.90;;;;;;1805683;79;21540;-69
2021/06/07 08:46:06;;;;;;;21.42;15.18;;;19.10;99.90;;;;;;1782178;79;21567;-69
2021/06/07 08:48:33;;;;;;;21.50;16.57;;;19.10;99.90;;;;;;1791381;79;21119;-68
2021/06/07 08:51:03;;;;;;;23.52;15.18;;;19.10;99.90;;;;;;1781284;79;21182;-68
2021/06/07 08:53:30;;;;;;;21.97;15.38;;;19.10;99.90;;;;;;1799065;79;21115;-67
2021/06/07 08:55:58;;;;;;;24.20;15.55;;;19.10;99.90;;;;;;1795934;77;21098;-68
2021/06/07 08:58:27;;;;;;;18.45;14.25;;;19.10;99.90;;;;;;1785436;78;21096;-68
2021/06/07 09:00:54;;;;;;;20.57;14.38;;;19.20;99.90;;;;;;1788479;79;21459;-67
2021/06/07 09:03:22;;;;;;;18.82;14.73;;;19.20;99.90;;;;;;1800844;79;21075;-67
2021/06/07 09:05:55;;;;;;;20.43;15.30;;;19.20;99.90;;;;;;1777947;80;21124;-68
2021/06/07 09:08:28;;;;;;;20.08;14.00;;;19.20;99.90;;;;;;1771298;79;21150;-68
2021/06/07 09:10:55;;;;;;;21.85;15.30;;;19.20;99.90;;;;;;1779787;79;21124;-67
2021/06/07 09:13:24;;;;;;;22.17;15.45;;;19.30;99.90;;;;;;1785665;79;21838;-67
2021/06/07 09:15:53;;;;;;;19.55;14.00;;;19.30;99.90;;;;;;1801811;79;21068;-68
2021/06/07 09:18:30;;;;;;;20.23;14.30;;;19.30;99.90;;;;;;1797039;79;21100;-66
2021/06/07 09:21:06;;;;;;;21.82;13.80;;;19.30;99.90;;;;;;1808656;79;21089;-66
2021/06/07 09:23:54;;;;;;;18.95;13.25;;;19.30;99.90;;;;;;1782111;79;21118;-71
2021/06/07 09:26:25;;;;;;;20.85;13.45;;;19.40;99.90;;;;;;1790435;78;21077;-68
2021/06/07 09:28:55;;;;;;;17.25;13.72;;;19.40;99.90;;;;;;1786986;79;21060;-68
2021/06/07 09:31:35;;;;;;;22.55;14.47;;;19.40;99.90;;;;;;1796396;78;21087;-69
2021/06/07 09:34:07;;;;;;;20.72;13.50;;;19.50;99.90;;;;;;1783647;80;21534;-69
2021/06/07 09:36:36;;;;;;;22.22;14.85;;;19.50;99.90;;;;;;1803190;79;21255;-68
2021/06/07 09:39:23;;;;;;;20.52;12.43;;;19.60;99.90;;;;;;1771292;79;21052;-69
2021/06/07 09:42:10;;;;;;;15.60;13.13;;;19.50;99.90;;;;;;1795287;79;21152;-70
2021/06/07 09:44:43;;;;;;;19.67;14.35;;;19.60;99.90;;;;;;1797990;79;22612;-69
2021/06/07 09:47:16;;;;;;;19.25;13.72;;;19.60;99.90;;;;;;1794597;78;21699;-68
2021/06/07 09:49:59;;;;;;;17.87;13.95;;;19.70;99.90;;;;;;1786576;79;21125;-69
2021/06/07 09:52:43;;;;;;;17.55;13.30;;;19.70;99.90;;;;;;1800262;78;21242;-70
2021/06/07 09:55:13;;;;;;;18.98;14.13;;;19.80;99.90;;;;;;1777987;79;21151;-69
2021/06/07 09:57:58;;;;;;;19.45;13.68;;;19.90;99.90;;;;;;1778135;79;21134;-67
2021/06/07 10:00:50;;;;;;;17.98;13.95;;;19.90;99.90;;;;;;1786131;79;22197;-69
2021/06/07 10:03:29;;;;;;;19.05;12.45;;;20.00;99.90;;;;;;1782589;79;21617;-69
2021/06/07 10:05:59;;;;;;;18.67;12.78;;;20.00;99.90;;;;;;1798675;79;21171;-70
2021/06/07 10:08:42;;;;;;;19.25;13.93;;;20.10;99.90;;;;;;1788069;79;21236;-69
2021/06/07 10:11:36;;;;;;;17.57;13.03;;;20.20;99.90;;;;;;1867579;74;21137;-73
2021/06/07 10:14:20;;;;;;;22.35;14.45;;;20.20;99.90;;;;;;1919036;74;21113;-73
2021/06/07 10:17:03;;;;;;;16.97;12.68;;;20.20;99.90;;;;;;1925438;73;21516;-73
2021/06/07 10:19:33;;;;;;;20.85;13.80;;;20.10;99.90;;;;;;1920693;73;21235;-73
2021/06/07 10:22:04;;;;;;;16.97;12.98;;;20.10;99.90;;;;;;1909891;74;21020;-73
2021/06/07 10:24:31;;;;;;;19.32;14.58;;;20.20;99.90;;;;;;1905471;73;21132;-72
2021/06/07 10:27:00;;;;;;;22.77;13.80;;;20.20;99.90;;;;;;1905072;74;21066;-74
2021/06/07 10:29:35;;;;;;;21.07;13.75;;;20.30;99.90;;;;;;1919209;74;21097;-74
2021/06/07 10:32:12;;;;;;;21.37;15.25;;;20.30;99.90;;;;;;1905255;74;21046;-74
2021/06/07 10:34:50;;;;;;;25.77;14.43;;;20.40;99.90;;;;;;1915070;74;21707;-72
2021/06/07 10:37:19;;;;;;;19.05;14.07;;;20.40;99.90;;;;;;1891152;74;21498;-75
2021/06/07 10:39:48;;;;;;;32.13;18.25;;;20.50;99.90;;;;;;1917755;74;21073;-70
2021/06/07 10:42:24;;;;;;;42.00;23.07;;;20.50;99.90;;;;;;1906506;74;21058;-70
2021/06/07 10:44:54;;;;;;;19.70;14.10;;;20.50;99.90;;;;;;1918927;74;21141;-70
2021/06/07 10:47:25;;;;;;;17.10;13.10;;;20.60;99.90;;;;;;1920444;74;21623;-70
2021/06/07 10:49:58;;;;;;;20.02;12.25;;;20.60;99.90;;;;;;1912155;74;21089;-69
2021/06/07 10:52:29;;;;;;;20.02;13.50;;;20.70;99.90;;;;;;1910076;74;21101;-70
2021/06/07 10:54:59;;;;;;;20.95;14.13;;;20.80;99.90;;;;;;1903236;74;21056;-68
2021/06/07 10:57:29;;;;;;;22.52;14.28;;;20.70;99.90;;;;;;1917366;73;21034;-70
2021/06/07 11:00:20;;;;;;;19.95;13.85;;;20.80;99.90;;;;;;1917592;73;21536;-69
2021/06/07 11:02:48;;;;;;;19.73;13.40;;;20.80;99.90;;;;;;1894065;73;21008;-68
2021/06/07 11:05:26;;;;;;;18.30;13.05;;;20.90;99.90;;;;;;1919853;73;21390;-70
2021/06/07 11:08:07;;;;;;;18.45;13.53;;;20.90;99.90;;;;;;1912923;73;21019;-69
2021/06/07 11:10:38;;;;;;;18.60;13.50;;;20.90;99.90;;;;;;1907687;73;21188;-70
2021/06/07 11:13:09;;;;;;;22.65;13.40;;;20.90;99.90;;;;;;1916153;73;21090;-69
2021/06/07 11:15:45;;;;;;;17.00;12.80;;;20.80;99.90;;;;;;1901971;73;21097;-70
2021/06/07 11:18:31;;;;;;;20.15;12.60;;;20.80;99.90;;;;;;1916095;73;21191;-69
2021/06/07 11:21:10;;;;;;;17.57;12.55;;;20.80;99.90;;;;;;1920241;74;21419;-71
2021/06/07 11:23:40;;;;;;;18.48;12.70;;;20.80;99.90;;;;;;1897024;73;21140;-69
2021/06/07 11:26:11;;;;;;;18.15;12.70;;;20.80;99.90;;;;;;1914282;74;21011;-70
2021/06/07 11:28:45;;;;;;;19.57;13.60;;;20.80;99.90;;;;;;1918733;73;21645;-69
2021/06/07 11:31:24;;;;;;;16.65;12.13;;;20.80;99.90;;;;;;1918883;73;21678;-69
2021/06/07 11:33:56;;;;;;;19.05;12.37;;;20.80;99.90;;;;;;1890838;74;22313;-70
2021/06/07 11:36:51;;;;;;;17.60;11.97;;;20.80;99.90;;;;;;1893092;73;21125;-70
2021/06/07 11:39:24;;;;;;;14.78;11.15;;;20.80;99.90;;;;;;1911932;74;21077;-68
2021/06/07 11:41:54;;;;;;;18.42;10.95;;;20.80;99.90;;;;;;1913705;73;21160;-69
2021/06/07 11:44:41;;;;;;;16.27;11.75;;;20.80;99.90;;;;;;1907822;73;21098;-71
2021/06/07 11:47:09;;;;;;;17.10;11.60;;;20.90;99.90;;;;;;1908688;73;22218;-69
2021/06/07 11:49:39;;;;;;;13.15;10.48;;;20.90;99.90;;;;;;1909203;73;21223;-68
2021/06/07 11:52:09;;;;;;;18.75;11.00;;;20.90;99.90;;;;;;1909759;74;21492;-66
2021/06/07 11:54:43;;;;;;;15.53;10.55;;;20.90;99.90;;;;;;1907485;74;21600;-69
2021/06/07 11:57:12;;;;;;;14.70;10.30;;;20.90;99.90;;;;;;1899568;73;21125;-70
2021/06/07 11:59:41;;;;;;;14.55;10.80;;;20.90;99.90;;;;;;1914846;73;21128;-71
2021/06/07 12:02:14;;;;;;;16.55;11.00;;;20.90;99.90;;;;;;1916340;73;22168;-69
2021/06/07 12:04:42;;;;;;;17.87;10.15;;;20.90;99.90;;;;;;1919977;73;21093;-71
2021/06/07 12:07:12;;;;;;;16.30;10.90;;;20.80;99.90;;;;;;1913039;74;21072;-69
2021/06/07 12:09:41;;;;;;;15.13;10.40;;;20.80;99.90;;;;;;1912338;73;22136;-67
2021/06/07 12:12:11;;;;;;;16.07;10.98;;;20.80;99.90;;;;;;1909771;74;21125;-68
2021/06/07 12:14:40;;;;;;;15.35;11.12;;;20.80;99.90;;;;;;1895365;73;21082;-69
2021/06/07 12:17:19;;;;;;;13.32;9.80;;;20.80;99.90;;;;;;1901891;73;21102;-69
2021/06/07 12:19:44;;;;;;;14.58;10.88;;;20.80;99.90;;;;;;1906928;75;21131;-67
2021/06/07 12:22:29;;;;;;;17.45;11.33;;;20.80;99.90;;;;;;1887116;73;21476;-69
2021/06/07 12:25:16;;;;;;;15.78;10.65;;;20.80;99.90;;;;;;1899860;75;21114;-70
2021/06/07 12:30:20;;;;;;;15.15;10.35;;;20.70;99.90;;;;;;1911407;74;21203;-68
2021/06/07 12:32:53;;;;;;;14.75;10.35;;;20.80;99.90;;;;;;1910902;73;21071;-68
2021/06/07 12:35:18;;;;;;;13.10;9.73;;;20.70;99.90;;;;;;1914982;73;21466;-69
2021/06/07 12:37:51;;;;;;;15.78;10.90;;;20.80;99.90;;;;;;1916813;74;21531;-69
2021/06/07 12:40:40;;;;;;;15.32;11.12;;;20.80;99.90;;;;;;1841890;76;21066;-69
2021/06/07 12:43:11;;;;;;;16.37;10.68;;;20.80;99.90;;;;;;1902868;73;21670;-69
2021/06/07 12:45:41;;;;;;;14.43;10.63;;;20.80;99.90;;;;;;1912121;74;21492;-67
2021/06/07 12:48:21;;;;;;;13.30;11.10;;;20.80;99.90;;;;;;1914275;74;21104;-69